createdAt,value
2023-05-22T00:01:22.747Z,10.33
2023-05-22T00:03:50.860Z,10.31
2023-05-22T00:06:18.519Z,10.30
2023-05-22T00:08:45.355Z,10.32
2023-05-22T00:11:12.158Z,10.36
2023-05-22T00:13:38.933Z,10.36
2023-05-22T00:16:06.129Z,10.33
2023-05-22T00:18:32.861Z,10.28
2023-05-22T00:20:59.594Z,10.30
2023-05-22T00:23:28.231Z,10.36
2023-05-22T00:25:54.944Z,10.21
2023-05-22T00:28:21.871Z,10.23
2023-05-22T00:30:48.626Z,10.31
2023-05-22T00:33:16.101Z,10.37
2023-05-22T00:35:42.882Z,10.24
2023-05-22T00:38:09.654Z,10.34
2023-05-22T00:40:36.663Z,10.42
2023-05-22T00:43:08.478Z,10.42
2023-05-22T00:45:35.753Z,10.45
2023-05-22T00:48:02.480Z,10.36
2023-05-22T00:50:29.608Z,10.50
2023-05-22T00:52:56.321Z,10.50
2023-05-22T00:55:23.105Z,10.50
2023-05-22T00:57:50.507Z,10.59
2023-05-22T01:00:17.459Z,10.67
2023-05-22T01:02:45.553Z,10.73
2023-05-22T01:05:13.470Z,10.73
2023-05-22T01:07:40.631Z,10.75
2023-05-22T01:10:08.103Z,10.81
2023-05-22T01:12:53.185Z,10.82
2023-05-22T01:15:57.301Z,10.79
2023-05-22T01:18:46.280Z,10.75
2023-05-22T01:21:24.467Z,10.68
2023-05-22T01:24:31.700Z,10.79
2023-05-22T01:27:42.791Z,10.83
2023-05-22T01:30:19.102Z,10.76
2023-05-22T01:32:47.642Z,10.80
2023-05-22T01:35:18.736Z,10.74
2023-05-22T01:37:45.641Z,10.65
2023-05-22T01:40:13.833Z,10.64
2023-05-22T01:42:41.388Z,10.60
2023-05-22T01:45:11.897Z,10.64
2023-05-22T01:47:39.008Z,10.58
2023-05-22T01:50:06.895Z,10.58
2023-05-22T01:53:14.375Z,10.58
2023-05-22T01:56:01.781Z,10.59
2023-05-22T01:59:09.348Z,10.57
2023-05-22T02:01:38.403Z,10.49
2023-05-22T02:04:06.599Z,10.54
2023-05-22T02:06:33.987Z,10.59
2023-05-22T02:09:03.104Z,10.58
2023-05-22T02:11:32.852Z,10.59
2023-05-22T02:14:01.867Z,10.65
2023-05-22T02:16:30.315Z,10.66
2023-05-22T02:19:06.076Z,10.69
2023-05-22T02:21:34.670Z,10.73
2023-05-22T02:24:02.467Z,10.76
2023-05-22T02:26:29.715Z,10.78
2023-05-22T02:28:59.888Z,10.77
2023-05-22T02:31:27.082Z,10.79
2023-05-22T02:33:53.927Z,10.86
2023-05-22T02:36:20.869Z,10.82
2023-05-22T02:38:47.883Z,10.74
2023-05-22T02:41:14.732Z,10.70
2023-05-22T02:43:41.743Z,10.60
2023-05-22T02:46:08.551Z,10.55
2023-05-22T02:48:35.425Z,10.55
2023-05-22T02:51:02.168Z,10.53
2023-05-22T02:53:28.969Z,10.50
2023-05-22T02:55:58.950Z,10.56
2023-05-22T02:58:26.011Z,10.54
2023-05-22T03:00:55.649Z,10.51
2023-05-22T03:03:25.124Z,10.50
2023-05-22T03:05:54.501Z,10.51
2023-05-22T03:08:21.659Z,10.46
2023-05-22T03:10:48.441Z,10.42
2023-05-22T03:13:15.484Z,10.34
2023-05-22T03:15:42.240Z,10.24
2023-05-22T03:18:13.414Z,10.18
2023-05-22T03:20:41.977Z,10.20
2023-05-22T03:23:09.061Z,10.29
2023-05-22T03:25:35.900Z,10.16
2023-05-22T03:28:02.912Z,10.25
2023-05-22T03:30:34.045Z,10.15
2023-05-22T03:33:13.636Z,10.25
2023-05-22T03:35:40.522Z,10.30
2023-05-22T03:38:07.475Z,10.21
2023-05-22T03:40:34.856Z,10.27
2023-05-22T03:43:01.642Z,10.18
2023-05-22T03:45:28.712Z,10.20
2023-05-22T03:47:55.806Z,10.23
2023-05-22T03:50:24.042Z,10.28
2023-05-22T03:52:50.825Z,10.26
2023-05-22T03:55:17.818Z,10.37
2023-05-22T03:57:44.541Z,10.44
2023-05-22T04:00:11.994Z,10.52
2023-05-22T04:02:45.237Z,10.54
2023-05-22T04:05:13.016Z,10.53
2023-05-22T04:07:39.857Z,10.65
2023-05-22T04:10:07.170Z,10.57
2023-05-22T04:12:34.157Z,10.59
2023-05-22T04:15:01.028Z,10.55
2023-05-22T04:17:33.677Z,10.60
2023-05-22T04:20:00.689Z,10.53
2023-05-22T04:22:27.892Z,10.54
2023-05-22T04:24:54.701Z,10.59
2023-05-22T04:27:22.753Z,10.53
2023-05-22T04:29:52.401Z,10.60
2023-05-22T04:32:21.714Z,10.70
2023-05-22T04:34:52.318Z,10.65
2023-05-22T04:37:20.534Z,10.63
2023-05-22T04:39:48.783Z,10.73
2023-05-22T04:42:16.054Z,10.59
2023-05-22T04:44:43.642Z,10.70
2023-05-22T04:47:12.106Z,10.72
2023-05-22T04:49:39.216Z,10.70
2023-05-22T04:52:07.379Z,10.75
2023-05-22T04:54:34.579Z,10.79
2023-05-22T04:57:03.123Z,10.73
2023-05-22T04:59:33.475Z,10.80
2023-05-22T05:02:02.799Z,10.56
2023-05-22T05:04:29.677Z,10.71
2023-05-22T05:06:57.630Z,10.76
2023-05-22T05:09:24.878Z,10.80
2023-05-22T05:11:52.686Z,10.93
2023-05-22T05:14:19.949Z,10.96
2023-05-22T05:16:47.007Z,10.96
2023-05-22T05:19:15.525Z,11.09
2023-05-22T05:21:42.778Z,11.17
2023-05-22T05:24:09.838Z,11.15
2023-05-22T05:26:37.102Z,11.26
2023-05-22T05:29:04.217Z,11.28
2023-05-22T05:31:37.956Z,11.33
2023-05-22T05:34:23.690Z,11.26
2023-05-22T05:37:03.104Z,11.24
2023-05-22T05:39:30.672Z,11.21
2023-05-22T05:42:00.408Z,11.26
2023-05-22T05:44:27.633Z,11.29
2023-05-22T05:46:56.162Z,11.22
2023-05-22T05:49:23.001Z,11.09
2023-05-22T05:51:50.108Z,11.04
2023-05-22T05:54:18.189Z,10.85
2023-05-22T05:56:46.475Z,10.86
2023-05-22T05:59:13.379Z,10.94
2023-05-22T06:02:09.886Z,10.99
2023-05-22T06:04:36.988Z,10.86
2023-05-22T06:07:04.489Z,10.94
2023-05-22T06:09:39.055Z,11.04
2023-05-22T06:12:24.558Z,10.92
2023-05-22T06:14:51.316Z,10.95
2023-05-22T06:17:18.088Z,11.05
2023-05-22T06:19:45.684Z,11.16
2023-05-22T06:22:13.422Z,11.12
2023-05-22T06:24:42.832Z,11.10
2023-05-22T06:27:14.737Z,11.46
2023-05-22T06:29:41.747Z,11.46
2023-05-22T06:32:08.899Z,11.60
2023-05-22T06:34:38.083Z,11.68
2023-05-22T06:37:06.317Z,11.51
2023-05-22T06:39:39.292Z,11.47
2023-05-22T06:42:27.132Z,11.30
2023-05-22T06:45:13.952Z,11.28
2023-05-22T06:47:54.479Z,11.12
2023-05-22T06:50:22.324Z,11.18
2023-05-22T06:52:49.443Z,11.04
2023-05-22T06:55:18.070Z,11.08
2023-05-22T06:57:57.675Z,11.07
2023-05-22T07:00:26.124Z,11.26
2023-05-22T07:03:04.906Z,11.31
2023-05-22T07:05:39.614Z,11.19
2023-05-22T07:08:06.506Z,11.28
2023-05-22T07:10:34.446Z,11.54
2023-05-22T07:13:02.138Z,11.63
2023-05-22T07:15:30.631Z,11.59
2023-05-22T07:17:59.447Z,11.44
2023-05-22T07:20:26.402Z,11.80
2023-05-22T07:23:13.480Z,11.56
2023-05-22T07:25:41.249Z,11.49
2023-05-22T07:28:09.464Z,11.72
2023-05-22T07:30:45.574Z,11.62
2023-05-22T07:33:12.716Z,11.75
2023-05-22T07:35:39.883Z,11.94
2023-05-22T07:38:07.717Z,11.68
2023-05-22T07:40:35.536Z,11.96
2023-05-22T07:43:02.478Z,12.23
2023-05-22T07:45:31.101Z,12.74
2023-05-22T07:48:02.110Z,12.46
2023-05-22T07:50:33.174Z,12.38
2023-05-22T07:53:00.336Z,12.25
2023-05-22T07:55:27.578Z,12.57
2023-05-22T07:57:55.049Z,12.31
2023-05-22T08:00:30.238Z,12.35
2023-05-22T08:02:57.177Z,12.82
2023-05-22T08:05:24.158Z,12.82
2023-05-22T08:07:51.072Z,12.56
2023-05-22T08:10:19.113Z,12.52
2023-05-22T08:12:46.231Z,12.34
2023-05-22T08:15:12.982Z,12.57
2023-05-22T08:17:39.904Z,13.24
2023-05-22T08:20:07.684Z,13.17
2023-05-22T08:22:36.864Z,13.12
2023-05-22T08:25:04.281Z,13.17
2023-05-22T08:27:31.199Z,13.38
2023-05-22T08:29:58.017Z,13.32
2023-05-22T08:32:24.812Z,12.60
2023-05-22T08:34:51.683Z,12.63
2023-05-22T08:37:18.553Z,12.74
2023-05-22T08:39:45.594Z,12.45
2023-05-22T08:42:12.478Z,12.48
2023-05-22T08:44:39.589Z,12.34
2023-05-22T08:47:11.368Z,12.10
2023-05-22T08:49:40.084Z,12.00
2023-05-22T08:52:13.964Z,11.87
2023-05-22T08:54:43.364Z,11.95
2023-05-22T08:57:10.905Z,12.09
2023-05-22T08:59:40.069Z,12.28
2023-05-22T09:02:07.600Z,12.38
2023-05-22T09:04:35.006Z,12.42
2023-05-22T09:07:05.980Z,12.32
2023-05-22T09:09:37.596Z,12.71
2023-05-22T09:12:11.777Z,12.70
2023-05-22T09:14:42.363Z,12.68
2023-05-22T09:17:13.782Z,12.74
2023-05-22T09:19:45.533Z,12.72
2023-05-22T09:22:13.158Z,12.83
2023-05-22T09:24:43.509Z,12.81
2023-05-22T09:27:11.839Z,12.24
2023-05-22T09:29:52.725Z,12.51
2023-05-22T09:32:20.220Z,12.57
2023-05-22T09:34:47.268Z,12.69
2023-05-22T09:37:14.766Z,12.70
2023-05-22T09:39:47.476Z,12.63
2023-05-22T09:42:18.005Z,12.52
2023-05-22T09:44:51.718Z,12.68
2023-05-22T09:47:18.815Z,12.76
2023-05-22T09:49:46.100Z,12.95
2023-05-22T09:52:13.066Z,12.79
2023-05-22T09:54:47.550Z,13.05
2023-05-22T09:57:20.784Z,13.11
2023-05-22T09:59:54.300Z,13.19
2023-05-22T10:02:26.329Z,13.18
2023-05-22T10:04:54.624Z,13.32
2023-05-22T10:07:23.349Z,13.18
2023-05-22T10:09:59.854Z,13.44
2023-05-22T10:12:28.713Z,13.81
2023-05-22T10:14:55.738Z,14.21
2023-05-22T10:17:24.220Z,13.97
2023-05-22T10:19:53.616Z,14.19
2023-05-22T10:22:22.655Z,14.64
2023-05-22T10:24:50.909Z,15.11
2023-05-22T10:27:18.155Z,15.43
2023-05-22T10:29:53.103Z,15.09
2023-05-22T10:33:07.849Z,15.59
2023-05-22T10:35:55.940Z,15.79
2023-05-22T10:38:48.429Z,15.62
2023-05-22T10:41:16.877Z,15.75
2023-05-22T10:43:43.957Z,15.62
2023-05-22T10:46:12.807Z,15.42
2023-05-22T10:48:45.458Z,15.08
2023-05-22T10:51:18.107Z,15.08
2023-05-22T10:53:47.744Z,14.98
2023-05-22T10:56:16.485Z,15.79
2023-05-22T10:58:55.802Z,15.13
2023-05-22T11:01:25.920Z,15.00
2023-05-22T11:04:01.258Z,14.60
2023-05-22T11:06:45.724Z,14.65
2023-05-22T11:09:30.807Z,14.77
2023-05-22T11:12:27.535Z,14.97
2023-05-22T11:14:55.440Z,14.64
2023-05-22T11:17:28.190Z,14.66
2023-05-22T11:20:13.794Z,14.57
2023-05-22T11:22:44.980Z,14.25
2023-05-22T11:25:16.881Z,14.08
2023-05-22T11:27:44.722Z,14.17
2023-05-22T11:30:12.792Z,14.30
2023-05-22T11:32:41.417Z,14.41
2023-05-22T11:35:08.745Z,14.09
2023-05-22T11:37:39.922Z,13.85
2023-05-22T11:40:07.748Z,14.15
2023-05-22T11:42:35.800Z,14.56
2023-05-22T11:45:03.459Z,14.90
2023-05-22T11:47:30.942Z,15.33
2023-05-22T11:49:58.457Z,15.07
2023-05-22T11:52:25.944Z,15.29
2023-05-22T11:54:53.225Z,15.41
2023-05-22T11:57:20.857Z,15.00
2023-05-22T11:59:48.364Z,14.85
2023-05-22T12:02:19.366Z,15.46
2023-05-22T12:04:46.653Z,15.60
2023-05-22T12:07:14.100Z,16.05
2023-05-22T12:09:43.016Z,15.77
2023-05-22T12:12:11.565Z,15.87
2023-05-22T12:14:38.735Z,16.48
2023-05-22T12:17:06.474Z,16.48
2023-05-22T12:19:33.356Z,16.42
2023-05-22T12:22:00.172Z,16.10
2023-05-22T12:24:38.204Z,15.72
2023-05-22T12:27:09.111Z,15.61
2023-05-22T12:29:36.377Z,15.90
2023-05-22T12:32:04.176Z,16.36
2023-05-22T12:34:35.216Z,16.31
2023-05-22T12:37:02.275Z,15.76
2023-05-22T12:39:30.309Z,15.25
2023-05-22T12:41:57.074Z,15.72
2023-05-22T12:44:23.804Z,16.01
2023-05-22T12:46:52.269Z,16.03
2023-05-22T12:49:19.196Z,16.49
2023-05-22T12:51:46.061Z,16.50
2023-05-22T12:54:14.804Z,16.58
2023-05-22T12:56:41.591Z,16.83
2023-05-22T12:59:08.724Z,16.23
2023-05-22T13:01:35.692Z,16.64
2023-05-22T13:04:02.433Z,16.36
2023-05-22T13:06:30.518Z,16.38
2023-05-22T13:08:57.645Z,16.33
2023-05-22T13:11:26.740Z,16.42
2023-05-22T13:13:53.697Z,16.57
2023-05-22T13:16:20.834Z,15.99
2023-05-22T13:18:48.117Z,15.71
2023-05-22T13:21:15.064Z,15.63
2023-05-22T13:23:42.291Z,15.86
2023-05-22T13:26:09.157Z,15.97
2023-05-22T13:28:35.878Z,15.86
2023-05-22T13:31:02.738Z,15.98
2023-05-22T13:33:29.432Z,15.70
2023-05-22T13:35:56.480Z,15.93
2023-05-22T13:38:23.145Z,15.80
2023-05-22T13:40:50.090Z,15.47
2023-05-22T13:43:16.857Z,15.32
2023-05-22T13:45:43.652Z,15.43
2023-05-22T13:48:11.314Z,15.63
2023-05-22T13:50:38.196Z,15.37
2023-05-22T13:53:05.036Z,15.59
2023-05-22T13:55:31.811Z,16.03
2023-05-22T13:57:58.897Z,16.38
2023-05-22T14:00:25.930Z,16.45
2023-05-22T14:02:52.886Z,15.99
2023-05-22T14:05:19.922Z,16.19
2023-05-22T14:07:46.663Z,15.88
2023-05-22T14:10:13.597Z,16.00
2023-05-22T14:12:40.444Z,16.09
2023-05-22T14:15:07.930Z,16.13
2023-05-22T14:17:34.673Z,16.15
2023-05-22T14:20:01.525Z,16.46
2023-05-22T14:22:28.430Z,16.51
2023-05-22T14:24:55.200Z,16.54
2023-05-22T14:27:21.903Z,16.18
2023-05-22T14:29:48.697Z,16.21
2023-05-22T14:32:15.407Z,16.21
2023-05-22T14:34:42.171Z,16.60
2023-05-22T14:37:08.837Z,16.08
2023-05-22T14:39:35.698Z,16.27
2023-05-22T14:42:02.354Z,16.59
2023-05-22T14:44:29.396Z,14.88
2023-05-22T14:46:56.265Z,14.82
2023-05-22T14:49:23.113Z,14.07
2023-05-22T14:51:50.020Z,14.65
2023-05-22T14:54:20.151Z,13.84
2023-05-22T14:56:46.949Z,13.77
2023-05-22T14:59:14.330Z,13.77
2023-05-22T15:01:41.505Z,13.69
2023-05-22T15:04:09.010Z,13.65
2023-05-22T15:06:36.320Z,13.43
2023-05-22T15:09:03.319Z,13.44
2023-05-22T15:11:30.465Z,13.54
2023-05-22T15:13:57.190Z,13.63
2023-05-22T15:16:25.782Z,13.68
2023-05-22T15:18:52.830Z,13.62
2023-05-22T15:21:19.722Z,13.68
2023-05-22T15:23:46.962Z,13.58
2023-05-22T15:26:13.775Z,13.75
2023-05-22T15:28:41.008Z,13.87
2023-05-22T15:31:07.735Z,13.78
2023-05-22T15:33:34.495Z,13.88
2023-05-22T15:36:01.186Z,13.51
2023-05-22T15:38:28.784Z,13.47
2023-05-22T15:40:55.579Z,13.37
2023-05-22T15:43:23.796Z,13.42
2023-05-22T15:45:52.768Z,13.40
2023-05-22T15:48:19.639Z,13.35
2023-05-22T15:50:46.579Z,13.36
2023-05-22T15:53:13.388Z,13.46
2023-05-22T15:55:40.298Z,13.54
2023-05-22T15:58:08.008Z,13.26
2023-05-22T16:00:41.304Z,13.30
2023-05-22T16:03:08.952Z,13.18
2023-05-22T16:05:39.770Z,13.12
2023-05-22T16:08:09.867Z,12.99
2023-05-22T16:10:36.888Z,13.17
2023-05-22T16:13:06.985Z,13.25
2023-05-22T16:15:34.395Z,13.08
2023-05-22T16:18:01.484Z,13.18
2023-05-22T16:20:28.306Z,13.02
2023-05-22T16:22:55.045Z,12.71
2023-05-22T16:25:22.002Z,12.66
2023-05-22T16:27:48.670Z,13.15
2023-05-22T16:30:18.918Z,13.04
2023-05-22T16:32:46.844Z,13.00
2023-05-22T16:35:14.642Z,12.69
2023-05-22T16:37:41.436Z,12.72
2023-05-22T16:40:11.457Z,12.63
2023-05-22T16:42:38.441Z,12.93
2023-05-22T16:45:06.399Z,13.18
2023-05-22T16:47:33.502Z,13.10
2023-05-22T16:50:00.480Z,13.22
2023-05-22T16:52:27.353Z,13.21
2023-05-22T16:54:54.267Z,13.04
2023-05-22T16:57:21.073Z,13.08
2023-05-22T16:59:47.988Z,13.22
2023-05-22T17:02:14.990Z,13.27
2023-05-22T17:04:41.684Z,13.41
2023-05-22T17:07:08.446Z,13.47
2023-05-22T17:09:35.293Z,13.40
2023-05-22T17:12:02.059Z,13.53
2023-05-22T17:14:28.810Z,13.43
2023-05-22T17:16:56.172Z,13.38
2023-05-22T17:19:23.094Z,13.10
2023-05-22T17:21:49.985Z,13.28
2023-05-22T17:24:16.736Z,13.25
2023-05-22T17:26:44.176Z,13.24
2023-05-22T17:29:11.134Z,13.04
2023-05-22T17:31:39.458Z,13.13
2023-05-22T17:34:06.609Z,13.12
2023-05-22T17:36:33.687Z,13.22
2023-05-22T17:39:01.010Z,12.99
2023-05-22T17:41:27.852Z,13.02
2023-05-22T17:43:57.054Z,12.93
2023-05-22T17:46:23.891Z,12.82
2023-05-22T17:48:50.678Z,12.84
2023-05-22T17:51:18.465Z,12.72
2023-05-22T17:53:45.350Z,12.97
2023-05-22T17:56:12.142Z,12.92
2023-05-22T17:58:39.112Z,13.00
2023-05-22T18:01:06.125Z,13.26
2023-05-22T18:03:34.167Z,13.10
2023-05-22T18:06:01.174Z,13.09
2023-05-22T18:08:28.431Z,13.03
2023-05-22T18:10:55.878Z,13.18
2023-05-22T18:13:24.164Z,13.00
2023-05-22T18:15:51.749Z,12.99
2023-05-22T18:18:18.783Z,12.70
2023-05-22T18:20:48.971Z,12.91
2023-05-22T18:23:16.590Z,12.96
2023-05-22T18:25:43.311Z,13.07
2023-05-22T18:28:10.656Z,13.04
2023-05-22T18:30:37.711Z,13.06
2023-05-22T18:33:04.791Z,13.06
2023-05-22T18:35:31.733Z,13.12
2023-05-22T18:38:00.249Z,13.14
2023-05-22T18:40:27.058Z,13.03
2023-05-22T18:42:55.094Z,13.01
2023-05-22T18:45:21.792Z,12.95
2023-05-22T18:47:48.591Z,12.88
2023-05-22T18:50:15.312Z,12.77
2023-05-22T18:52:43.431Z,12.71
2023-05-22T18:55:10.872Z,12.61
2023-05-22T18:57:37.740Z,12.51
2023-05-22T19:00:07.299Z,12.56
2023-05-22T19:02:34.246Z,12.56
2023-05-22T19:05:01.187Z,12.68
2023-05-22T19:07:28.159Z,12.69
2023-05-22T19:09:54.971Z,12.83
2023-05-22T19:12:24.710Z,12.55
2023-05-22T19:14:52.580Z,12.58
2023-05-22T19:17:19.401Z,12.67
2023-05-22T19:19:46.699Z,12.61
2023-05-22T19:22:14.245Z,12.61
2023-05-22T19:24:41.903Z,12.60
2023-05-22T19:29:49.408Z,12.79
2023-05-22T19:32:16.242Z,13.07
2023-05-22T19:34:43.019Z,12.78
2023-05-22T19:37:10.006Z,12.80
2023-05-22T19:39:36.795Z,13.02
2023-05-22T19:42:03.774Z,13.02
2023-05-22T19:44:33.572Z,12.92
2023-05-22T19:47:00.403Z,12.82
2023-05-22T19:49:31.666Z,12.80
2023-05-22T19:51:59.569Z,12.88
2023-05-22T19:54:26.400Z,12.81
2023-05-22T19:56:53.249Z,12.60
2023-05-22T19:59:23.344Z,12.64
2023-05-22T20:01:52.214Z,12.63
2023-05-22T20:04:21.500Z,12.39
2023-05-22T20:06:49.256Z,12.47
2023-05-22T20:09:16.419Z,12.50
2023-05-22T20:11:43.269Z,12.47
2023-05-22T20:14:10.030Z,12.45
2023-05-22T20:16:37.178Z,12.32
2023-05-22T20:19:04.143Z,12.27
2023-05-22T20:21:33.899Z,12.10
2023-05-22T20:24:01.916Z,11.95
2023-05-22T20:26:28.794Z,11.94
2023-05-22T20:28:55.801Z,11.97
2023-05-22T20:31:22.679Z,11.80
2023-05-22T20:33:49.485Z,11.84
2023-05-22T20:36:16.501Z,11.94
2023-05-22T20:38:43.917Z,11.81
2023-05-22T20:41:12.931Z,11.67
2023-05-22T20:43:43.331Z,11.28
2023-05-22T20:46:10.559Z,11.38
2023-05-22T20:48:38.149Z,11.33
2023-05-22T20:51:05.089Z,11.32
2023-05-22T20:53:31.858Z,11.34
2023-05-22T20:55:58.724Z,11.21
2023-05-22T20:58:27.309Z,11.21
2023-05-22T21:00:57.679Z,11.18
2023-05-22T21:03:25.796Z,11.20
2023-05-22T21:05:52.987Z,11.05
2023-05-22T21:08:21.404Z,11.04
2023-05-22T21:10:48.230Z,11.15
2023-05-22T21:13:17.547Z,11.20
2023-05-22T21:15:44.387Z,11.33
2023-05-22T21:18:12.516Z,11.23
2023-05-22T21:20:48.417Z,11.23
2023-05-22T21:23:18.114Z,11.22
2023-05-22T21:25:44.938Z,11.17
2023-05-22T21:28:11.687Z,11.18
2023-05-22T21:30:38.660Z,10.98
2023-05-22T21:33:06.061Z,11.02
2023-05-22T21:35:32.846Z,11.03
2023-05-22T21:37:59.577Z,10.96
2023-05-22T21:40:26.754Z,10.96
2023-05-22T21:42:53.563Z,10.78
2023-05-22T21:45:30.159Z,10.76
2023-05-22T21:47:58.148Z,10.66
2023-05-22T21:50:25.574Z,10.42
2023-05-22T21:52:55.688Z,10.37
2023-05-22T21:55:22.706Z,10.45
2023-05-22T21:57:49.419Z,10.44
2023-05-22T22:00:17.382Z,10.35
2023-05-22T22:02:47.653Z,10.37
2023-05-22T22:05:14.643Z,10.36
2023-05-22T22:07:43.494Z,10.28
2023-05-22T22:10:10.538Z,10.20
2023-05-22T22:12:41.488Z,10.17
2023-05-22T22:15:12.514Z,10.12
2023-05-22T22:17:40.674Z,10.10
2023-05-22T22:20:11.397Z,9.89
2023-05-22T22:22:41.769Z,10.00
2023-05-22T22:25:08.793Z,9.92
2023-05-22T22:27:36.937Z,9.80
2023-05-22T22:30:07.304Z,9.90
2023-05-22T22:32:34.439Z,9.85
2023-05-22T22:35:02.041Z,10.02
2023-05-22T22:37:28.808Z,10.01
2023-05-22T22:39:58.553Z,9.92
2023-05-22T22:42:26.645Z,9.88
2023-05-22T22:44:53.397Z,9.95
2023-05-22T22:47:23.263Z,9.84
2023-05-22T22:49:50.241Z,9.94
2023-05-22T22:52:17.047Z,9.92
2023-05-22T22:54:44.891Z,9.87
2023-05-22T22:57:14.432Z,9.84
2023-05-22T22:59:41.237Z,9.73
2023-05-22T23:02:08.280Z,9.80
2023-05-22T23:04:35.176Z,9.78
2023-05-22T23:07:02.084Z,9.84
2023-05-22T23:09:28.916Z,9.81
2023-05-22T23:11:55.752Z,9.79
2023-05-22T23:14:22.570Z,9.50
2023-05-22T23:16:51.953Z,9.48
2023-05-22T23:19:18.929Z,9.46
2023-05-22T23:21:46.052Z,9.43
2023-05-22T23:24:12.749Z,9.37
2023-05-22T23:26:39.560Z,9.46
2023-05-22T23:29:06.535Z,9.46
2023-05-22T23:31:33.349Z,9.36
2023-05-22T23:34:00.060Z,9.45
2023-05-22T23:36:26.901Z,9.53
2023-05-22T23:38:53.961Z,9.61
2023-05-22T23:41:20.823Z,9.56
2023-05-22T23:43:47.570Z,9.46
2023-05-22T23:46:14.878Z,9.44
2023-05-22T23:48:42.452Z,9.41
2023-05-22T23:51:09.891Z,9.18
2023-05-22T23:53:38.484Z,9.19
2023-05-22T23:56:05.500Z,9.34
2023-05-22T23:58:32.480Z,9.29
